Marin Sunshine — WDE5919 — position and weather

sailwx.info

Track history (hours):
 
Tides and Currents Weather Stations Pressure Air Temp Water Temp Dewpoint Dewpoint Depression Visibility Wind Speed Wind Dir Waves Ship Positions

Marin Sunshine

Owner: Marine Express, alameda, CA. More information available from US FCC via Universal Licensing System and Coast Guard Vessel Documentation Center.

Last reported at 2016-Jul-09 14:33 UTC. Time now 2016-Jul-29 04:07 UTC.
Position N 37°58' W 121°22'.
Warning: this ship's position is 19 days out of date.

MMSI: 367373280.

Date/timePositionNaut miles runAvg speedWind from/ knotsBaromVisibWave heightAir tempDewpointWater temp
2016-Jul-09 14:33N 37°58' W 121°22'1 1.3
2016-Jul-09 13:33N 37°57' W 121°20'0 0.0
2016-Jul-09 12:33N 37°57' W 121°20'1 0.0
2016-Jul-08 04:33N 37°57' W 121°22'1 1.1
2016-Jul-08 03:33N 37°57' W 121°20'2 2.3
2016-Jul-08 02:33N 37°58' W 121°23'1 0.0
2016-Jul-06 14:34N 37°57' W 121°22'1 1.1
2016-Jul-06 13:34N 37°58' W 121°23'1 1.1
2016-Jul-06 12:34N 37°57' W 121°22'  
2016-Jun-30 01:33N 37°57' W 121°22'2 1.5
2016-Jun-30 00:33N 37°57' W 121°20'0 0.0
2016-Jun-29 23:33N 37°57' W 121°20'  
Track history (hours):
 
Tides and Currents Weather Stations Pressure Air Temp Water Temp Dewpoint Dewpoint Depression Visibility Wind Speed Wind Dir Waves Ship Positions

Marin Sunshine

Owner: Marine Express, alameda, CA. More information available from US FCC via Universal Licensing System and Coast Guard Vessel Documentation Center.

Last reported at 2016-Jul-09 14:33 UTC. Time now 2016-Jul-29 04:07 UTC.
Position N 37°58' W 121°22'.
Warning: this ship's position is 19 days out of date.

MMSI: 367373280.

Date/timePositionNaut miles runAvg speedWind from/ knotsBaromVisibWave heightAir tempDewpointWater temp
2016-Jul-09 14:33N 37°58' W 121°22'1 1.3
2016-Jul-09 13:33N 37°57' W 121°20'0 0.0
2016-Jul-09 12:33N 37°57' W 121°20'1 0.0
2016-Jul-08 04:33N 37°57' W 121°22'1 1.1
2016-Jul-08 03:33N 37°57' W 121°20'2 2.3
2016-Jul-08 02:33N 37°58' W 121°23'1 0.0
2016-Jul-06 14:34N 37°57' W 121°22'1 1.1
2016-Jul-06 13:34N 37°58' W 121°23'1 1.1
2016-Jul-06 12:34N 37°57' W 121°22'  
2016-Jun-30 01:33N 37°57' W 121°22'2 1.5
2016-Jun-30 00:33N 37°57' W 121°20'0 0.0
2016-Jun-29 23:33N 37°57' W 121°20'  

Dump ship's entire track history